sensor_id;sensor_type;location;lat;lon;timestamp;temperature;humidity
19437;DHT22;9854;50.968;4.168;2022-11-28T00:00:36;9.70;99.90
19437;DHT22;9854;50.968;4.168;2022-11-28T00:03:02;9.70;99.90
19437;DHT22;9854;50.968;4.168;2022-11-28T00:05:28;9.60;99.90
19437;DHT22;9854;50.968;4.168;2022-11-28T00:07:53;9.60;99.90
19437;DHT22;9854;50.968;4.168;2022-11-28T00:10:20;9.70;99.90
19437;DHT22;9854;50.968;4.168;2022-11-28T00:12:46;9.60;99.90
19437;DHT22;9854;50.968;4.168;2022-11-28T00:15:12;9.50;99.90
19437;DHT22;9854;50.968;4.168;2022-11-28T00:17:38;9.50;99.90
19437;DHT22;9854;50.968;4.168;2022-11-28T00:20:04;9.50;99.90
19437;DHT22;9854;50.968;4.168;2022-11-28T00:22:30;9.40;99.90
19437;DHT22;9854;50.968;4.168;2022-11-28T00:24:55;9.50;99.90
19437;DHT22;9854;50.968;4.168;2022-11-28T00:27:21;9.50;99.90
19437;DHT22;9854;50.968;4.168;2022-11-28T00:29:46;9.50;99.90
19437;DHT22;9854;50.968;4.168;2022-11-28T00:32:12;9.40;99.90
19437;DHT22;9854;50.968;4.168;2022-11-28T00:34:38;9.30;99.90
19437;DHT22;9854;50.968;4.168;2022-11-28T00:37:03;9.30;99.90
19437;DHT22;9854;50.968;4.168;2022-11-28T00:39:29;9.20;99.90
19437;DHT22;9854;50.968;4.168;2022-11-28T00:41:54;9.10;99.90
19437;DHT22;9854;50.968;4.168;2022-11-28T00:44:20;9.10;99.90
19437;DHT22;9854;50.968;4.168;2022-11-28T00:46:46;9.20;99.90
19437;DHT22;9854;50.968;4.168;2022-11-28T00:49:12;9.20;99.90
19437;DHT22;9854;50.968;4.168;2022-11-28T00:51:37;9.20;99.90
19437;DHT22;9854;50.968;4.168;2022-11-28T00:54:04;9.10;99.90
19437;DHT22;9854;50.968;4.168;2022-11-28T00:56:33;9.00;99.90
19437;DHT22;9854;50.968;4.168;2022-11-28T00:58:59;9.00;99.90
19437;DHT22;9854;50.968;4.168;2022-11-28T01:01:28;9.20;99.90
19437;DHT22;9854;50.968;4.168;2022-11-28T01:03:55;9.30;99.90
19437;DHT22;9854;50.968;4.168;2022-11-28T01:06:30;9.20;99.90
19437;DHT22;9854;50.968;4.168;2022-11-28T01:08:58;9.20;99.90
19437;DHT22;9854;50.968;4.168;2022-11-28T01:11:24;9.20;99.90
19437;DHT22;9854;50.968;4.168;2022-11-28T01:13:50;9.20;99.90
19437;DHT22;9854;50.968;4.168;2022-11-28T01:16:17;9.20;99.90
19437;DHT22;9854;50.968;4.168;2022-11-28T01:18:43;9.30;99.90
19437;DHT22;9854;50.968;4.168;2022-11-28T01:21:09;9.30;99.90
19437;DHT22;9854;50.968;4.168;2022-11-28T01:23:35;9.30;99.90
19437;DHT22;9854;50.968;4.168;2022-11-28T01:26:04;9.20;99.90
19437;DHT22;9854;50.968;4.168;2022-11-28T01:28:30;9.30;99.90
19437;DHT22;9854;50.968;4.168;2022-11-28T01:30:56;9.10;99.90
19437;DHT22;9854;50.968;4.168;2022-11-28T01:33:21;9.00;99.90
19437;DHT22;9854;50.968;4.168;2022-11-28T01:35:55;9.00;99.90
19437;DHT22;9854;50.968;4.168;2022-11-28T01:38:21;9.00;99.90
19437;DHT22;9854;50.968;4.168;2022-11-28T01:40:47;9.10;99.90
19437;DHT22;9854;50.968;4.168;2022-11-28T01:43:13;9.10;99.90
19437;DHT22;9854;50.968;4.168;2022-11-28T01:45:38;9.20;99.90
19437;DHT22;9854;50.968;4.168;2022-11-28T01:48:07;9.20;99.90
19437;DHT22;9854;50.968;4.168;2022-11-28T01:50:34;9.10;99.90
19437;DHT22;9854;50.968;4.168;2022-11-28T01:53:03;9.10;99.90
19437;DHT22;9854;50.968;4.168;2022-11-28T01:55:34;9.20;99.90
19437;DHT22;9854;50.968;4.168;2022-11-28T01:58:02;9.20;99.90
19437;DHT22;9854;50.968;4.168;2022-11-28T02:00:28;9.10;99.90
19437;DHT22;9854;50.968;4.168;2022-11-28T02:03:01;9.20;99.90
19437;DHT22;9854;50.968;4.168;2022-11-28T02:05:28;9.30;99.90
19437;DHT22;9854;50.968;4.168;2022-11-28T02:07:54;9.20;99.90
19437;DHT22;9854;50.968;4.168;2022-11-28T02:10:34;9.20;99.90
19437;DHT22;9854;50.968;4.168;2022-11-28T02:15:56;9.20;99.90
19437;DHT22;9854;50.968;4.168;2022-11-28T02:34:57;9.20;99.90
19437;DHT22;9854;50.968;4.168;2022-11-28T02:37:40;9.20;99.90
19437;DHT22;9854;50.968;4.168;2022-11-28T02:40:21;9.20;99.90
19437;DHT22;9854;50.968;4.168;2022-11-28T02:43:09;9.10;99.90
19437;DHT22;9854;50.968;4.168;2022-11-28T02:45:56;9.10;99.90
19437;DHT22;9854;50.968;4.168;2022-11-28T02:49:18;9.10;99.90
19437;DHT22;9854;50.968;4.168;2022-11-28T02:51:42;9.10;99.90
19437;DHT22;9854;50.968;4.168;2022-11-28T02:54:11;9.20;99.90
19437;DHT22;9854;50.968;4.168;2022-11-28T02:56:38;9.10;99.90
19437;DHT22;9854;50.968;4.168;2022-11-28T02:59:43;9.20;99.90
19437;DHT22;9854;50.968;4.168;2022-11-28T03:08:10;9.20;99.90
19437;DHT22;9854;50.968;4.168;2022-11-28T03:21:46;9.20;99.90
19437;DHT22;9854;50.968;4.168;2022-11-28T03:24:29;9.20;99.90
19437;DHT22;9854;50.968;4.168;2022-11-28T03:27:07;9.00;99.90
19437;DHT22;9854;50.968;4.168;2022-11-28T03:29:45;9.10;99.90
19437;DHT22;9854;50.968;4.168;2022-11-28T03:32:23;9.20;99.90
19437;DHT22;9854;50.968;4.168;2022-11-28T03:34:55;9.40;99.90
19437;DHT22;9854;50.968;4.168;2022-11-28T03:37:29;9.50;99.90
19437;DHT22;9854;50.968;4.168;2022-11-28T03:40:00;9.30;99.90
19437;DHT22;9854;50.968;4.168;2022-11-28T03:42:29;9.30;99.90
19437;DHT22;9854;50.968;4.168;2022-11-28T03:45:07;9.30;99.90
19437;DHT22;9854;50.968;4.168;2022-11-28T03:47:41;9.30;99.90
19437;DHT22;9854;50.968;4.168;2022-11-28T03:50:16;9.20;99.90
19437;DHT22;9854;50.968;4.168;2022-11-28T03:52:50;9.20;99.90
19437;DHT22;9854;50.968;4.168;2022-11-28T03:55:18;9.30;99.90
19437;DHT22;9854;50.968;4.168;2022-11-28T03:57:57;9.20;99.90
19437;DHT22;9854;50.968;4.168;2022-11-28T04:00:24;9.10;99.90
19437;DHT22;9854;50.968;4.168;2022-11-28T04:03:19;9.10;99.90
19437;DHT22;9854;50.968;4.168;2022-11-28T04:08:47;9.20;99.90
19437;DHT22;9854;50.968;4.168;2022-11-28T04:11:29;9.20;99.90
19437;DHT22;9854;50.968;4.168;2022-11-28T04:14:19;9.40;99.90
19437;DHT22;9854;50.968;4.168;2022-11-28T04:19:35;9.30;99.90
19437;DHT22;9854;50.968;4.168;2022-11-28T04:22:23;9.30;99.90
19437;DHT22;9854;50.968;4.168;2022-11-28T04:25:15;9.30;99.90
19437;DHT22;9854;50.968;4.168;2022-11-28T04:27:45;9.20;99.90
19437;DHT22;9854;50.968;4.168;2022-11-28T04:30:12;9.20;99.90
19437;DHT22;9854;50.968;4.168;2022-11-28T04:32:42;9.20;99.90
19437;DHT22;9854;50.968;4.168;2022-11-28T04:35:14;9.40;99.90
19437;DHT22;9854;50.968;4.168;2022-11-28T04:37:43;9.40;99.90
19437;DHT22;9854;50.968;4.168;2022-11-28T04:40:13;9.40;99.90
19437;DHT22;9854;50.968;4.168;2022-11-28T04:42:47;9.40;99.90
19437;DHT22;9854;50.968;4.168;2022-11-28T04:45:20;9.30;99.90
19437;DHT22;9854;50.968;4.168;2022-11-28T04:47:47;9.50;99.90
19437;DHT22;9854;50.968;4.168;2022-11-28T04:50:13;9.50;99.90
19437;DHT22;9854;50.968;4.168;2022-11-28T04:53:00;9.50;99.90
19437;DHT22;9854;50.968;4.168;2022-11-28T04:55:39;9.50;99.90
19437;DHT22;9854;50.968;4.168;2022-11-28T05:00:38;9.30;99.90
19437;DHT22;9854;50.968;4.168;2022-11-28T05:03:05;9.30;99.90
19437;DHT22;9854;50.968;4.168;2022-11-28T05:05:44;9.30;99.90
19437;DHT22;9854;50.968;4.168;2022-11-28T05:08:10;9.30;99.90
19437;DHT22;9854;50.968;4.168;2022-11-28T05:10:36;9.30;99.90
19437;DHT22;9854;50.968;4.168;2022-11-28T05:13:02;9.30;99.90
19437;DHT22;9854;50.968;4.168;2022-11-28T05:15:27;9.30;99.90
19437;DHT22;9854;50.968;4.168;2022-11-28T05:17:53;9.20;99.90
19437;DHT22;9854;50.968;4.168;2022-11-28T05:20:18;9.50;99.90
19437;DHT22;9854;50.968;4.168;2022-11-28T05:22:44;9.50;99.90
19437;DHT22;9854;50.968;4.168;2022-11-28T05:25:09;9.70;99.90
19437;DHT22;9854;50.968;4.168;2022-11-28T05:27:35;9.80;99.90
19437;DHT22;9854;50.968;4.168;2022-11-28T05:30:01;9.90;99.90
19437;DHT22;9854;50.968;4.168;2022-11-28T05:32:31;9.70;99.90
19437;DHT22;9854;50.968;4.168;2022-11-28T05:34:57;9.70;99.90
19437;DHT22;9854;50.968;4.168;2022-11-28T05:37:23;9.70;99.90
19437;DHT22;9854;50.968;4.168;2022-11-28T05:39:50;9.60;99.90
19437;DHT22;9854;50.968;4.168;2022-11-28T05:42:16;9.40;99.90
19437;DHT22;9854;50.968;4.168;2022-11-28T05:44:41;9.50;99.90
19437;DHT22;9854;50.968;4.168;2022-11-28T05:47:07;9.60;99.90
19437;DHT22;9854;50.968;4.168;2022-11-28T05:49:32;9.60;99.90
19437;DHT22;9854;50.968;4.168;2022-11-28T05:51:58;9.50;99.90
19437;DHT22;9854;50.968;4.168;2022-11-28T05:54:24;9.50;99.90
19437;DHT22;9854;50.968;4.168;2022-11-28T05:56:50;9.60;99.90
19437;DHT22;9854;50.968;4.168;2022-11-28T05:59:15;9.70;99.90
19437;DHT22;9854;50.968;4.168;2022-11-28T06:01:41;9.70;99.90
19437;DHT22;9854;50.968;4.168;2022-11-28T06:04:06;9.80;99.90
19437;DHT22;9854;50.968;4.168;2022-11-28T06:06:33;9.70;99.90
19437;DHT22;9854;50.968;4.168;2022-11-28T06:09:00;9.70;99.90
19437;DHT22;9854;50.968;4.168;2022-11-28T06:11:27;9.60;99.90
19437;DHT22;9854;50.968;4.168;2022-11-28T06:13:54;9.80;99.90
19437;DHT22;9854;50.968;4.168;2022-11-28T06:16:22;10.00;99.90
19437;DHT22;9854;50.968;4.168;2022-11-28T06:18:55;9.90;99.90
19437;DHT22;9854;50.968;4.168;2022-11-28T06:21:21;9.80;99.90
19437;DHT22;9854;50.968;4.168;2022-11-28T06:23:47;9.70;99.90
19437;DHT22;9854;50.968;4.168;2022-11-28T06:26:16;9.60;99.90
19437;DHT22;9854;50.968;4.168;2022-11-28T06:28:43;9.80;99.90
19437;DHT22;9854;50.968;4.168;2022-11-28T06:31:14;9.90;99.90
19437;DHT22;9854;50.968;4.168;2022-11-28T06:33:40;10.10;99.90
19437;DHT22;9854;50.968;4.168;2022-11-28T06:36:07;9.90;99.90
19437;DHT22;9854;50.968;4.168;2022-11-28T06:38:33;9.90;99.90
19437;DHT22;9854;50.968;4.168;2022-11-28T06:41:04;10.00;99.90
19437;DHT22;9854;50.968;4.168;2022-11-28T06:43:30;9.90;99.90
19437;DHT22;9854;50.968;4.168;2022-11-28T06:45:56;9.80;99.90
19437;DHT22;9854;50.968;4.168;2022-11-28T06:48:22;9.90;99.90
19437;DHT22;9854;50.968;4.168;2022-11-28T06:50:48;10.10;99.90
19437;DHT22;9854;50.968;4.168;2022-11-28T06:53:15;10.20;99.90
19437;DHT22;9854;50.968;4.168;2022-11-28T06:55:41;10.20;99.90
19437;DHT22;9854;50.968;4.168;2022-11-28T06:58:07;10.20;99.90
19437;DHT22;9854;50.968;4.168;2022-11-28T07:00:33;10.10;99.90
19437;DHT22;9854;50.968;4.168;2022-11-28T07:02:59;10.10;99.90
19437;DHT22;9854;50.968;4.168;2022-11-28T07:05:24;10.10;99.90
19437;DHT22;9854;50.968;4.168;2022-11-28T07:07:54;10.00;99.90
19437;DHT22;9854;50.968;4.168;2022-11-28T07:10:21;10.00;99.90
19437;DHT22;9854;50.968;4.168;2022-11-28T07:12:47;10.00;99.90
19437;DHT22;9854;50.968;4.168;2022-11-28T07:15:16;9.90;99.90
19437;DHT22;9854;50.968;4.168;2022-11-28T07:17:42;9.90;99.90
19437;DHT22;9854;50.968;4.168;2022-11-28T07:20:08;9.90;99.90
19437;DHT22;9854;50.968;4.168;2022-11-28T07:22:34;9.90;99.90
19437;DHT22;9854;50.968;4.168;2022-11-28T07:24:59;9.80;99.90
19437;DHT22;9854;50.968;4.168;2022-11-28T07:27:25;9.80;99.90
19437;DHT22;9854;50.968;4.168;2022-11-28T07:29:50;9.80;99.90
19437;DHT22;9854;50.968;4.168;2022-11-28T07:32:16;9.90;99.90
19437;DHT22;9854;50.968;4.168;2022-11-28T07:34:41;9.90;99.90
19437;DHT22;9854;50.968;4.168;2022-11-28T07:37:07;9.90;99.90
19437;DHT22;9854;50.968;4.168;2022-11-28T07:39:33;9.80;99.90
19437;DHT22;9854;50.968;4.168;2022-11-28T07:41:58;10.10;99.90
19437;DHT22;9854;50.968;4.168;2022-11-28T07:44:24;10.00;99.90
19437;DHT22;9854;50.968;4.168;2022-11-28T07:46:50;10.00;99.90
19437;DHT22;9854;50.968;4.168;2022-11-28T07:49:15;9.90;99.90
19437;DHT22;9854;50.968;4.168;2022-11-28T07:51:41;9.90;99.90
19437;DHT22;9854;50.968;4.168;2022-11-28T07:54:07;9.80;99.90
19437;DHT22;9854;50.968;4.168;2022-11-28T07:56:35;9.90;99.90
19437;DHT22;9854;50.968;4.168;2022-11-28T07:59:02;10.00;99.90
19437;DHT22;9854;50.968;4.168;2022-11-28T08:01:31;10.00;99.90
19437;DHT22;9854;50.968;4.168;2022-11-28T08:03:58;10.10;99.90
19437;DHT22;9854;50.968;4.168;2022-11-28T08:06:26;10.10;99.90
19437;DHT22;9854;50.968;4.168;2022-11-28T08:08:53;10.10;99.90
19437;DHT22;9854;50.968;4.168;2022-11-28T08:11:21;10.00;99.90
19437;DHT22;9854;50.968;4.168;2022-11-28T08:13:47;10.00;99.90
19437;DHT22;9854;50.968;4.168;2022-11-28T08:16:19;10.00;99.90
19437;DHT22;9854;50.968;4.168;2022-11-28T08:18:45;10.10;99.90
19437;DHT22;9854;50.968;4.168;2022-11-28T08:21:14;10.10;99.90
19437;DHT22;9854;50.968;4.168;2022-11-28T08:23:41;10.10;99.90
19437;DHT22;9854;50.968;4.168;2022-11-28T08:26:09;10.10;99.90
19437;DHT22;9854;50.968;4.168;2022-11-28T08:28:35;9.90;99.90
19437;DHT22;9854;50.968;4.168;2022-11-28T08:31:09;10.00;99.90
19437;DHT22;9854;50.968;4.168;2022-11-28T08:33:35;9.90;99.90
19437;DHT22;9854;50.968;4.168;2022-11-28T08:36:03;10.10;99.90
19437;DHT22;9854;50.968;4.168;2022-11-28T08:38:29;10.10;99.90
19437;DHT22;9854;50.968;4.168;2022-11-28T08:41:07;10.10;99.90
19437;DHT22;9854;50.968;4.168;2022-11-28T08:43:33;10.10;99.90
19437;DHT22;9854;50.968;4.168;2022-11-28T08:45:59;10.10;99.90
19437;DHT22;9854;50.968;4.168;2022-11-28T08:48:25;10.10;99.90
19437;DHT22;9854;50.968;4.168;2022-11-28T08:50:51;10.20;99.90
19437;DHT22;9854;50.968;4.168;2022-11-28T08:53:17;10.20;99.90
19437;DHT22;9854;50.968;4.168;2022-11-28T08:55:43;10.30;99.90
19437;DHT22;9854;50.968;4.168;2022-11-28T08:58:13;10.40;99.90
19437;DHT22;9854;50.968;4.168;2022-11-28T09:00:39;10.30;99.90
19437;DHT22;9854;50.968;4.168;2022-11-28T09:03:05;10.40;99.90
19437;DHT22;9854;50.968;4.168;2022-11-28T09:05:30;10.30;99.90
19437;DHT22;9854;50.968;4.168;2022-11-28T09:07:56;10.20;99.90
19437;DHT22;9854;50.968;4.168;2022-11-28T09:10:23;10.30;99.90
19437;DHT22;9854;50.968;4.168;2022-11-28T09:12:49;10.30;99.90
19437;DHT22;9854;50.968;4.168;2022-11-28T09:15:16;10.20;99.90
19437;DHT22;9854;50.968;4.168;2022-11-28T09:17:42;10.30;99.90
19437;DHT22;9854;50.968;4.168;2022-11-28T09:20:08;10.20;99.90
19437;DHT22;9854;50.968;4.168;2022-11-28T09:22:34;10.20;99.90
19437;DHT22;9854;50.968;4.168;2022-11-28T09:24:59;10.10;99.90
19437;DHT22;9854;50.968;4.168;2022-11-28T09:27:25;10.00;99.90
19437;DHT22;9854;50.968;4.168;2022-11-28T09:29:51;10.10;99.90
19437;DHT22;9854;50.968;4.168;2022-11-28T09:32:16;10.10;99.90
19437;DHT22;9854;50.968;4.168;2022-11-28T09:34:42;10.20;99.90
19437;DHT22;9854;50.968;4.168;2022-11-28T09:37:08;10.10;99.90
19437;DHT22;9854;50.968;4.168;2022-11-28T09:39:34;10.30;99.90
19437;DHT22;9854;50.968;4.168;2022-11-28T09:42:02;10.30;99.90
19437;DHT22;9854;50.968;4.168;2022-11-28T09:44:39;10.30;99.90
19437;DHT22;9854;50.968;4.168;2022-11-28T09:47:20;10.30;99.90
19437;DHT22;9854;50.968;4.168;2022-11-28T09:49:57;10.30;99.90
19437;DHT22;9854;50.968;4.168;2022-11-28T09:52:41;10.40;99.90
19437;DHT22;9854;50.968;4.168;2022-11-28T09:55:15;10.60;99.90
19437;DHT22;9854;50.968;4.168;2022-11-28T09:57:45;10.40;99.90
19437;DHT22;9854;50.968;4.168;2022-11-28T10:00:18;10.50;99.90
19437;DHT22;9854;50.968;4.168;2022-11-28T10:03:05;10.60;99.90
19437;DHT22;9854;50.968;4.168;2022-11-28T10:13:57;10.70;99.90
19437;DHT22;9854;50.968;4.168;2022-11-28T10:19:17;11.10;99.90
19437;DHT22;9854;50.968;4.168;2022-11-28T10:21:50;10.90;99.90
19437;DHT22;9854;50.968;4.168;2022-11-28T10:24:23;11.20;99.90
19437;DHT22;9854;50.968;4.168;2022-11-28T10:26:54;11.10;99.90
19437;DHT22;9854;50.968;4.168;2022-11-28T10:29:29;11.40;99.90
19437;DHT22;9854;50.968;4.168;2022-11-28T10:32:00;11.30;99.90
19437;DHT22;9854;50.968;4.168;2022-11-28T10:34:40;11.40;99.90
19437;DHT22;9854;50.968;4.168;2022-11-28T10:37:28;11.30;99.90
19437;DHT22;9854;50.968;4.168;2022-11-28T10:39:55;11.50;99.90
19437;DHT22;9854;50.968;4.168;2022-11-28T10:42:39;11.80;99.90
19437;DHT22;9854;50.968;4.168;2022-11-28T10:45:25;11.70;99.90
19437;DHT22;9854;50.968;4.168;2022-11-28T10:59:42;11.80;99.90
19437;DHT22;9854;50.968;4.168;2022-11-28T11:02:21;12.00;99.90
19437;DHT22;9854;50.968;4.168;2022-11-28T11:04:51;12.00;99.90
19437;DHT22;9854;50.968;4.168;2022-11-28T11:07:22;11.70;99.90
19437;DHT22;9854;50.968;4.168;2022-11-28T11:09:48;11.50;99.90
19437;DHT22;9854;50.968;4.168;2022-11-28T11:12:25;11.50;99.90
19437;DHT22;9854;50.968;4.168;2022-11-28T11:14:51;11.70;99.90
19437;DHT22;9854;50.968;4.168;2022-11-28T11:17:35;11.70;99.90
19437;DHT22;9854;50.968;4.168;2022-11-28T11:22:55;11.60;99.90
19437;DHT22;9854;50.968;4.168;2022-11-28T11:25:23;11.40;99.90
19437;DHT22;9854;50.968;4.168;2022-11-28T11:27:50;11.40;99.90
19437;DHT22;9854;50.968;4.168;2022-11-28T11:30:27;11.40;99.90
19437;DHT22;9854;50.968;4.168;2022-11-28T11:32:55;11.20;99.90
19437;DHT22;9854;50.968;4.168;2022-11-28T11:35:43;11.20;99.90
19437;DHT22;9854;50.968;4.168;2022-11-28T11:40:51;11.30;99.90
19437;DHT22;9854;50.968;4.168;2022-11-28T11:46:07;11.50;99.90
19437;DHT22;9854;50.968;4.168;2022-11-28T11:48:51;11.50;99.90
19437;DHT22;9854;50.968;4.168;2022-11-28T11:51:29;11.40;99.90
19437;DHT22;9854;50.968;4.168;2022-11-28T11:56:40;11.40;99.90
19437;DHT22;9854;50.968;4.168;2022-11-28T11:59:27;11.40;99.90
19437;DHT22;9854;50.968;4.168;2022-11-28T12:02:07;11.40;99.90
19437;DHT22;9854;50.968;4.168;2022-11-28T12:04:44;11.80;99.90
19437;DHT22;9854;50.968;4.168;2022-11-28T12:07:24;11.90;99.90
19437;DHT22;9854;50.968;4.168;2022-11-28T12:09:52;11.60;99.90
19437;DHT22;9854;50.968;4.168;2022-11-28T12:12:25;11.60;99.90
19437;DHT22;9854;50.968;4.168;2022-11-28T12:14:53;11.40;99.90
19437;DHT22;9854;50.968;4.168;2022-11-28T12:23:06;11.50;99.90
19437;DHT22;9854;50.968;4.168;2022-11-28T12:45:17;12.70;99.90
19437;DHT22;9854;50.968;4.168;2022-11-28T12:50:51;13.10;99.90
19437;DHT22;9854;50.968;4.168;2022-11-28T12:54:03;12.90;99.90
19437;DHT22;9854;50.968;4.168;2022-11-28T13:04:40;12.60;99.90
19437;DHT22;9854;50.968;4.168;2022-11-28T13:10:16;13.00;99.90
19437;DHT22;9854;50.968;4.168;2022-11-28T13:18:18;12.80;99.90
19437;DHT22;9854;50.968;4.168;2022-11-28T13:20:58;12.70;99.90
19437;DHT22;9854;50.968;4.168;2022-11-28T13:26:26;12.80;99.90
19437;DHT22;9854;50.968;4.168;2022-11-28T13:29:25;12.60;99.90
19437;DHT22;9854;50.968;4.168;2022-11-28T13:32:06;12.50;99.90
19437;DHT22;9854;50.968;4.168;2022-11-28T13:34:34;12.60;99.90
19437;DHT22;9854;50.968;4.168;2022-11-28T13:37:23;12.80;99.90
19437;DHT22;9854;50.968;4.168;2022-11-28T13:42:50;13.00;99.90
19437;DHT22;9854;50.968;4.168;2022-11-28T13:45:31;12.70;99.90
19437;DHT22;9854;50.968;4.168;2022-11-28T13:47:57;12.60;99.90
19437;DHT22;9854;50.968;4.168;2022-11-28T13:58:15;12.50;99.90
19437;DHT22;9854;50.968;4.168;2022-11-28T14:00:43;12.90;99.90
19437;DHT22;9854;50.968;4.168;2022-11-28T14:03:23;12.80;99.90
19437;DHT22;9854;50.968;4.168;2022-11-28T14:05:53;12.60;99.90
19437;DHT22;9854;50.968;4.168;2022-11-28T14:08:38;12.50;99.90
19437;DHT22;9854;50.968;4.168;2022-11-28T14:25:07;12.60;99.90
19437;DHT22;9854;50.968;4.168;2022-11-28T14:27:36;12.90;99.90
19437;DHT22;9854;50.968;4.168;2022-11-28T14:30:03;12.90;99.90
19437;DHT22;9854;50.968;4.168;2022-11-28T14:32:35;12.70;99.90
19437;DHT22;9854;50.968;4.168;2022-11-28T14:35:03;12.70;99.90
19437;DHT22;9854;50.968;4.168;2022-11-28T14:37:35;12.60;99.90
19437;DHT22;9854;50.968;4.168;2022-11-28T14:43:31;12.50;99.90
19437;DHT22;9854;50.968;4.168;2022-11-28T14:46:28;12.30;99.90
19437;DHT22;9854;50.968;4.168;2022-11-28T14:54:24;12.20;99.90
19437;DHT22;9854;50.968;4.168;2022-11-28T14:56:51;12.20;99.90
19437;DHT22;9854;50.968;4.168;2022-11-28T14:59:18;12.20;99.90
19437;DHT22;9854;50.968;4.168;2022-11-28T15:07:23;12.30;99.90
19437;DHT22;9854;50.968;4.168;2022-11-28T15:10:20;12.20;99.90
19437;DHT22;9854;50.968;4.168;2022-11-28T15:13:06;12.30;99.90
19437;DHT22;9854;50.968;4.168;2022-11-28T15:15:49;12.50;99.90
19437;DHT22;9854;50.968;4.168;2022-11-28T15:18:20;12.60;99.90
19437;DHT22;9854;50.968;4.168;2022-11-28T15:21:01;12.50;99.90
19437;DHT22;9854;50.968;4.168;2022-11-28T15:23:36;12.50;99.90
19437;DHT22;9854;50.968;4.168;2022-11-28T15:26:03;12.50;99.90
19437;DHT22;9854;50.968;4.168;2022-11-28T15:28:30;12.30;99.90
19437;DHT22;9854;50.968;4.168;2022-11-28T15:31:00;12.20;99.90
19437;DHT22;9854;50.968;4.168;2022-11-28T15:33:26;12.30;99.90
19437;DHT22;9854;50.968;4.168;2022-11-28T15:36:07;12.80;99.90
19437;DHT22;9854;50.968;4.168;2022-11-28T15:38:41;12.70;99.90
19437;DHT22;9854;50.968;4.168;2022-11-28T15:41:07;12.60;99.90
19437;DHT22;9854;50.968;4.168;2022-11-28T15:43:35;12.40;99.90
19437;DHT22;9854;50.968;4.168;2022-11-28T15:46:02;12.50;99.90
19437;DHT22;9854;50.968;4.168;2022-11-28T15:48:37;12.40;99.90
19437;DHT22;9854;50.968;4.168;2022-11-28T15:51:04;12.20;99.90
19437;DHT22;9854;50.968;4.168;2022-11-28T15:53:31;12.20;99.90
19437;DHT22;9854;50.968;4.168;2022-11-28T15:56:26;12.20;99.90
19437;DHT22;9854;50.968;4.168;2022-11-28T15:58:52;12.00;99.90
19437;DHT22;9854;50.968;4.168;2022-11-28T16:01:19;11.90;99.90
19437;DHT22;9854;50.968;4.168;2022-11-28T16:06:18;11.70;99.90
19437;DHT22;9854;50.968;4.168;2022-11-28T16:08:54;11.60;99.90
19437;DHT22;9854;50.968;4.168;2022-11-28T16:11:23;11.60;99.90
19437;DHT22;9854;50.968;4.168;2022-11-28T16:13:51;11.30;99.90
19437;DHT22;9854;50.968;4.168;2022-11-28T16:16:20;11.40;99.90
19437;DHT22;9854;50.968;4.168;2022-11-28T16:18:56;11.40;99.90
19437;DHT22;9854;50.968;4.168;2022-11-28T16:24:00;11.40;99.90
19437;DHT22;9854;50.968;4.168;2022-11-28T16:26:30;11.40;99.90
19437;DHT22;9854;50.968;4.168;2022-11-28T16:31:32;11.60;99.90
19437;DHT22;9854;50.968;4.168;2022-11-28T16:33:59;11.60;99.90
19437;DHT22;9854;50.968;4.168;2022-11-28T16:42:24;11.80;99.90
19437;DHT22;9854;50.968;4.168;2022-11-28T16:44:25;11.80;99.90
19437;DHT22;9854;50.968;4.168;2022-11-28T16:46:55;11.80;99.90
19437;DHT22;9854;50.968;4.168;2022-11-28T16:49:41;11.70;99.90
19437;DHT22;9854;50.968;4.168;2022-11-28T16:54:51;11.70;99.90
19437;DHT22;9854;50.968;4.168;2022-11-28T16:57:17;11.70;99.90
19437;DHT22;9854;50.968;4.168;2022-11-28T16:59:45;11.60;99.90
19437;DHT22;9854;50.968;4.168;2022-11-28T17:04:41;11.60;99.90
19437;DHT22;9854;50.968;4.168;2022-11-28T17:07:12;11.60;99.90
19437;DHT22;9854;50.968;4.168;2022-11-28T17:09:42;11.60;99.90
19437;DHT22;9854;50.968;4.168;2022-11-28T17:12:33;11.50;99.90
19437;DHT22;9854;50.968;4.168;2022-11-28T17:15:01;11.60;99.90
19437;DHT22;9854;50.968;4.168;2022-11-28T17:17:29;11.50;99.90
19437;DHT22;9854;50.968;4.168;2022-11-28T17:19:55;11.50;99.90
19437;DHT22;9854;50.968;4.168;2022-11-28T17:22:34;11.50;99.90
19437;DHT22;9854;50.968;4.168;2022-11-28T17:25:01;11.50;99.90
19437;DHT22;9854;50.968;4.168;2022-11-28T17:27:27;11.50;99.90
19437;DHT22;9854;50.968;4.168;2022-11-28T17:29:53;11.50;99.90
19437;DHT22;9854;50.968;4.168;2022-11-28T17:32:18;11.50;99.90
19437;DHT22;9854;50.968;4.168;2022-11-28T17:34:44;11.50;99.90
19437;DHT22;9854;50.968;4.168;2022-11-28T17:37:12;11.50;99.90
19437;DHT22;9854;50.968;4.168;2022-11-28T17:39:38;11.50;99.90
19437;DHT22;9854;50.968;4.168;2022-11-28T17:42:04;11.40;99.90
19437;DHT22;9854;50.968;4.168;2022-11-28T17:44:32;11.40;99.90
19437;DHT22;9854;50.968;4.168;2022-11-28T17:46:59;11.30;99.90
19437;DHT22;9854;50.968;4.168;2022-11-28T17:49:25;11.30;99.90
19437;DHT22;9854;50.968;4.168;2022-11-28T17:51:52;11.20;99.90
19437;DHT22;9854;50.968;4.168;2022-11-28T17:54:20;11.20;99.90
19437;DHT22;9854;50.968;4.168;2022-11-28T17:56:50;11.10;99.90
19437;DHT22;9854;50.968;4.168;2022-11-28T17:59:18;11.10;99.90
19437;DHT22;9854;50.968;4.168;2022-11-28T18:01:44;11.10;99.90
19437;DHT22;9854;50.968;4.168;2022-11-28T18:04:10;11.10;99.90
19437;DHT22;9854;50.968;4.168;2022-11-28T18:06:36;11.10;99.90
19437;DHT22;9854;50.968;4.168;2022-11-28T18:09:04;11.10;99.90
19437;DHT22;9854;50.968;4.168;2022-11-28T18:11:29;11.00;99.90
19437;DHT22;9854;50.968;4.168;2022-11-28T18:13:56;11.00;99.90
19437;DHT22;9854;50.968;4.168;2022-11-28T18:16:23;11.00;99.90
19437;DHT22;9854;50.968;4.168;2022-11-28T18:18:52;10.90;99.90
19437;DHT22;9854;50.968;4.168;2022-11-28T18:21:18;10.90;99.90
19437;DHT22;9854;50.968;4.168;2022-11-28T18:23:46;10.90;99.90
19437;DHT22;9854;50.968;4.168;2022-11-28T18:26:16;11.20;99.90
19437;DHT22;9854;50.968;4.168;2022-11-28T18:28:42;11.40;99.90
19437;DHT22;9854;50.968;4.168;2022-11-28T18:31:19;11.40;99.90
19437;DHT22;9854;50.968;4.168;2022-11-28T18:33:45;11.40;99.90
19437;DHT22;9854;50.968;4.168;2022-11-28T18:36:17;11.10;99.90
19437;DHT22;9854;50.968;4.168;2022-11-28T18:38:43;11.10;99.90
19437;DHT22;9854;50.968;4.168;2022-11-28T18:41:10;11.00;99.90
19437;DHT22;9854;50.968;4.168;2022-11-28T18:43:37;10.80;99.90
19437;DHT22;9854;50.968;4.168;2022-11-28T18:46:20;10.70;99.90
19437;DHT22;9854;50.968;4.168;2022-11-28T18:48:46;10.70;99.90
19437;DHT22;9854;50.968;4.168;2022-11-28T18:51:13;10.60;99.90
19437;DHT22;9854;50.968;4.168;2022-11-28T18:53:39;10.50;99.90
19437;DHT22;9854;50.968;4.168;2022-11-28T18:56:05;10.60;99.90
19437;DHT22;9854;50.968;4.168;2022-11-28T18:58:36;10.60;99.90
19437;DHT22;9854;50.968;4.168;2022-11-28T19:01:16;10.80;99.90
19437;DHT22;9854;50.968;4.168;2022-11-28T19:03:47;10.70;99.90
19437;DHT22;9854;50.968;4.168;2022-11-28T19:06:13;10.70;99.90
19437;DHT22;9854;50.968;4.168;2022-11-28T19:08:39;10.70;99.90
19437;DHT22;9854;50.968;4.168;2022-11-28T19:11:07;10.50;99.90
19437;DHT22;9854;50.968;4.168;2022-11-28T19:13:37;10.50;99.90
19437;DHT22;9854;50.968;4.168;2022-11-28T19:16:08;10.70;99.90